メインページ
METAR-TAF:

METAR-TAF

空港 :

ケベック・ジャン・ルサージ国際空港

ケベック・シティー, ケベック州, カナダ

緯度: 46-48N, 経度: 071-23W, 海抜: 70m

現時点の気象観測

当レポートは56分前の03:00(UTC)に作成
変向風 2kt
気温 10°C
湿度 57%
気圧 1019 hPa
視程: 24.1km
晴天

METAR: CYQB 220300Z VRB02KT 15SM SKC 10/02 A3008 RMK SLP189

時間: 23:56 (03:56 UTC)

予報

当レポートは4時間18分前の23:38(UTC)に作成
予報は22日の 00時(UTC)から 22日の 24時(UTC)まで有効
北西の風 5kt
視程: 10km
高度8000ftの雲はほとんどない
高度24000ftの雲はほとんどない
22日の 0600時(UTC)から
南西の風 5kt
視程: 10km
高度6000ftの雲はほとんどない
22日の 1000時(UTC)から
変向風 3kt
視程: 10km
高度7000ftの千切れ雲あり
22日の 1600時(UTC)から
南西の風 12kt、最大22ktの突風を伴う
視程: 10km
高度12000ftの千切れ雲あり

TAF: CYQB 212338Z 2200/2224 31005KT P6SM FEW080 FEW240 FM220600 23005KT P6SM FEW060 FM221000 VRB03KT P6SM BKN070 FM221600 23012G22KT P6SM BKN120 RMK NXT FCST BY 220600Z

4,000以上の空港の気象観測と天気予報(METAR報とTAF報)

利用可能な観測所は地図上に黄色い丸と赤い丸で示す。

丸の上にカーソルを重ねると観測所名を参照できる。

次にクリックすると気象観測と天気予報を参照できる。

マップの切り替え:黒色「×」印の緑ボタンをクリックして拡大、「-」印の緑ボタンをクリックして縮小、緑色の三角印をクリックして隣りの地図に切り替え


METAR-TAF: